Time;durP1;ratioP1;P1;durP2;ratioP2;P2;SDS_P1;SDS_P2;PMS_P1;PMS_P2;Temp;Humidity;BMP_temperature;BMP_pressure;BME280_temperature;BME280_humidity;BME280_pressure;Samples;Min_cycle;Max_cycle;Signal;HPM_P1;HPM_P2
2023/08/28 00:01:55;;;;;;;2.50;2.30;;;;;;;12.74;100.00;100905.75;4993622;28;20056;-71
2023/08/28 00:04:21;;;;;;;6.13;2.15;;;;;;;12.74;100.00;100903.16;5013146;28;20045;-71
2023/08/28 00:06:46;;;;;;;4.78;2.58;;;;;;;12.74;100.00;100910.16;5008542;28;20045;-71
2023/08/28 00:09:12;;;;;;;2.45;2.15;;;;;;;12.72;100.00;100912.13;5014418;28;20038;-71
2023/08/28 00:11:37;;;;;;;3.88;3.38;;;;;;;12.68;100.00;100916.84;5014682;28;20085;-72
2023/08/28 00:14:02;;;;;;;3.40;2.88;;;;;;;12.62;100.00;100907.91;5019779;28;20054;-71
2023/08/28 00:16:28;;;;;;;3.90;2.83;;;;;;;12.60;100.00;100901.25;5016899;28;20065;-71
2023/08/28 00:18:54;;;;;;;5.45;3.65;;;;;;;12.57;100.00;100906.78;5015505;28;20093;-72
2023/08/28 00:21:20;;;;;;;4.50;3.40;;;;;;;12.56;100.00;100908.56;5005784;28;20045;-72
2023/08/28 00:23:45;;;;;;;5.78;3.00;;;;;;;12.56;100.00;100907.75;5013770;28;20040;-71
2023/08/28 00:26:11;;;;;;;5.03;3.00;;;;;;;12.54;100.00;100899.31;4991609;28;20042;-72
2023/08/28 00:28:37;;;;;;;5.07;2.88;;;;;;;12.51;100.00;100904.84;5014045;28;20021;-71
2023/08/28 00:31:04;;;;;;;6.07;2.92;;;;;;;12.50;100.00;100903.22;4996392;28;20034;-72
2023/08/28 00:33:29;;;;;;;3.85;2.70;;;;;;;12.48;100.00;100894.78;5000148;28;20037;-72
2023/08/28 00:35:56;;;;;;;4.72;3.00;;;;;;;12.45;100.00;100899.34;4991976;28;20037;-72
2023/08/28 00:38:21;;;;;;;3.78;2.78;;;;;;;12.44;100.00;100894.31;4989692;28;20079;-72
2023/08/28 00:40:47;;;;;;;4.55;3.30;;;;;;;12.42;100.00;100884.06;4992219;28;20037;-72
2023/08/28 00:43:12;;;;;;;4.47;3.03;;;;;;;12.42;100.00;100891.06;4993699;28;20408;-72
2023/08/28 00:45:42;;;;;;;4.78;3.38;;;;;;;12.40;100.00;100877.41;4992272;28;20038;-72
2023/08/28 00:48:10;;;;;;;3.70;3.10;;;;;;;12.39;100.00;100888.78;4991082;28;20121;-72
2023/08/28 00:50:37;;;;;;;12.00;3.30;;;;;;;12.35;100.00;100885.69;4991820;28;20076;-72
2023/08/28 00:53:03;;;;;;;6.40;3.05;;;;;;;12.30;100.00;100884.56;4995456;28;20033;-72
2023/08/28 00:55:32;;;;;;;4.82;2.80;;;;;;;12.23;100.00;100885.22;4995681;28;20396;-72
2023/08/28 00:57:57;;;;;;;4.95;2.95;;;;;;;12.20;100.00;100882.16;5018603;28;20574;-72
2023/08/28 01:00:24;;;;;;;3.47;2.58;;;;;;;12.19;100.00;100893.53;5022200;28;20033;-72
2023/08/28 01:02:49;;;;;;;4.20;2.83;;;;;;;12.17;100.00;100888.50;4995215;28;20088;-72
2023/08/28 01:05:16;;;;;;;6.40;3.10;;;;;;;12.16;100.00;100893.84;4989117;28;20026;-72
2023/08/28 01:07:57;;;;;;;4.90;3.22;;;;;;;12.15;100.00;100889.63;4996670;28;20045;-72
2023/08/28 01:10:30;;;;;;;5.20;3.08;;;;;;;12.14;100.00;100894.00;4992642;28;20030;-72
2023/08/28 01:13:06;;;;;;;6.38;3.45;;;;;;;12.13;100.00;100892.41;4991749;28;20037;-72
2023/08/28 01:15:33;;;;;;;3.92;3.50;;;;;;;12.14;100.00;100896.59;5006084;28;20044;-73
2023/08/28 01:18:01;;;;;;;4.85;3.58;;;;;;;12.12;100.00;100890.75;5010055;28;20053;-73
2023/08/28 01:20:33;;;;;;;4.82;3.47;;;;;;;12.10;100.00;100892.72;5010776;28;20037;-73
2023/08/28 01:23:26;;;;;;;5.38;3.85;;;;;;;12.09;100.00;100885.88;4995868;28;20048;-73
2023/08/28 01:25:53;;;;;;;5.68;4.43;;;;;;;12.05;100.00;100879.41;4990115;28;20037;-72
2023/08/28 01:28:20;;;;;;;4.88;4.32;;;;;;;12.05;100.00;100880.22;4992957;28;20030;-73
2023/08/28 01:30:48;;;;;;;6.15;4.28;;;;;;;12.02;100.00;100877.94;4990795;28;20116;-73
2023/08/28 01:33:15;;;;;;;5.72;3.72;;;;;;;12.00;100.00;100886.88;4990358;28;20041;-73
2023/08/28 01:35:42;;;;;;;7.68;4.15;;;;;;;11.96;100.00;100886.41;5013067;28;20045;-73
2023/08/28 01:38:19;;;;;;;4.55;3.95;;;;;;;11.97;100.00;100876.81;4995636;28;20037;-72
2023/08/28 01:41:09;;;;;;;4.40;3.70;;;;;;;11.96;100.00;100876.00;5001114;28;20481;-73
2023/08/28 01:43:38;;;;;;;6.40;4.13;;;;;;;11.95;100.00;100884.75;4988220;28;20036;-72
2023/08/28 01:46:05;;;;;;;6.30;4.22;;;;;;;11.94;100.00;100882.31;4991907;28;20038;-72
2023/08/28 01:48:33;;;;;;;4.53;3.83;;;;;;;11.93;100.00;100881.53;4991456;28;20028;-73
2023/08/28 01:50:59;;;;;;;4.78;4.28;;;;;;;11.92;100.00;100892.88;5004718;28;20029;-73
2023/08/28 01:53:26;;;;;;;5.03;4.45;;;;;;;11.91;100.00;100882.66;4991016;28;20036;-72
2023/08/28 01:55:54;;;;;;;6.07;3.83;;;;;;;11.88;100.00;100879.38;4993458;28;20049;-73
2023/08/28 01:58:20;;;;;;;8.13;4.80;;;;;;;11.87;100.00;100867.34;4991524;28;20042;-73
2023/08/28 02:00:45;;;;;;;9.10;4.55;;;;;;;11.85;100.00;100864.13;4987932;28;20034;-73
2023/08/28 02:03:11;;;;;;;4.90;4.40;;;;;;;11.85;100.00;100868.50;4974606;28;20021;-73
2023/08/28 02:05:36;;;;;;;6.03;3.67;;;;;;;11.84;100.00;100874.66;4989035;28;20038;-73
2023/08/28 02:08:02;;;;;;;5.78;4.43;;;;;;;11.84;100.00;100877.25;4990553;28;20034;-73
2023/08/28 02:10:28;;;;;;;5.72;4.43;;;;;;;11.82;100.00;100881.81;4992516;28;20716;-73
2023/08/28 02:12:56;;;;;;;10.70;4.70;;;;;;;11.81;100.00;100877.56;4993434;28;21191;-73
2023/08/28 02:15:22;;;;;;;6.15;3.88;;;;;;;11.82;100.00;100879.22;5006659;28;20034;-73
2023/08/28 02:17:48;;;;;;;6.30;4.65;;;;;;;11.82;100.00;100868.81;4990125;28;20577;-73
2023/08/28 02:20:14;;;;;;;6.35;4.68;;;;;;;11.82;100.00;100856.63;4994761;28;20076;-73
2023/08/28 02:22:39;;;;;;;7.38;4.47;;;;;;;11.81;100.00;100854.19;4989879;28;20107;-73
2023/08/28 02:25:05;;;;;;;5.90;3.60;;;;;;;11.80;100.00;100852.59;4994104;28;20038;-73
2023/08/28 02:27:31;;;;;;;4.43;3.90;;;;;;;11.79;100.00;100853.53;4988406;28;20485;-73
2023/08/28 02:29:57;;;;;;;6.03;3.80;;;;;;;11.74;100.00;100859.25;5003775;28;20079;-73
2023/08/28 02:32:23;;;;;;;6.60;3.90;;;;;;;11.74;100.00;100863.63;4990730;28;20064;-73
2023/08/28 02:34:49;;;;;;;5.57;4.05;;;;;;;11.71;100.00;100859.56;4991242;28;20037;-73
2023/08/28 02:37:14;;;;;;;5.43;4.10;;;;;;;11.71;100.00;100871.75;4990873;28;20361;-73
2023/08/28 02:39:40;;;;;;;6.07;4.80;;;;;;;11.68;100.00;100868.50;4981236;28;20025;-73
2023/08/28 02:42:05;;;;;;;10.63;5.30;;;;;;;11.66;100.00;100867.03;4988348;28;20082;-73
2023/08/28 02:44:31;;;;;;;7.13;5.47;;;;;;;11.64;100.00;100864.59;4990000;28;20041;-73
2023/08/28 02:46:56;;;;;;;9.02;5.72;;;;;;;11.63;100.00;100875.94;4990926;28;20038;-73
2023/08/28 02:49:22;;;;;;;6.80;5.47;;;;;;;11.65;100.00;100879.19;4987968;28;20034;-73
2023/08/28 02:51:48;;;;;;;10.45;5.40;;;;;;;11.63;100.00;100881.13;5011733;28;20049;-73
2023/08/28 02:54:13;;;;;;;6.90;5.00;;;;;;;11.62;100.00;100889.91;4991011;28;20025;-73
2023/08/28 02:56:40;;;;;;;8.18;6.07;;;;;;;11.61;100.00;100892.69;4990260;28;20080;-73
2023/08/28 02:59:06;;;;;;;8.20;6.00;;;;;;;11.63;100.00;100895.91;5003886;28;20025;-73
2023/08/28 03:01:34;;;;;;;8.18;5.88;;;;;;;11.60;100.00;100899.66;4993396;28;20042;-73
2023/08/28 03:04:02;;;;;;;7.03;5.10;;;;;;;11.59;100.00;100892.81;4990883;28;20069;-74
2023/08/28 03:06:28;;;;;;;8.07;5.35;;;;;;;11.57;100.00;100897.38;4988494;28;20041;-72
2023/08/28 03:08:53;;;;;;;8.23;5.85;;;;;;;11.58;100.00;100892.97;4989404;28;20018;-73
2023/08/28 03:11:19;;;;;;;7.93;5.95;;;;;;;11.60;100.00;100891.03;5010101;28;20038;-73
2023/08/28 03:13:45;;;;;;;17.60;7.68;;;;;;;11.60;100.00;100901.41;5015211;28;20037;-73
2023/08/28 03:16:10;;;;;;;12.13;7.13;;;;;;;11.60;100.00;100904.84;5004808;28;20037;-72
2023/08/28 03:18:36;;;;;;;11.32;7.05;;;;;;;11.61;100.00;100900.47;4990704;28;20041;-72
2023/08/28 03:21:02;;;;;;;9.27;6.32;;;;;;;11.59;100.00;100903.22;4991159;28;20061;-74
2023/08/28 03:23:27;;;;;;;10.40;6.45;;;;;;;11.58;100.00;100908.56;5012203;28;20034;-73
2023/08/28 03:25:53;;;;;;;9.65;6.00;;;;;;;11.56;100.00;100908.72;4999143;28;20489;-73
2023/08/28 03:28:18;;;;;;;7.32;5.07;;;;;;;11.54;100.00;100909.84;5008681;28;20029;-73
2023/08/28 03:30:44;;;;;;;8.68;5.35;;;;;;;11.54;100.00;100910.66;5008529;28;20085;-73
2023/08/28 03:33:09;;;;;;;6.05;5.32;;;;;;;11.53;100.00;100905.63;4986974;28;20088;-73
2023/08/28 03:35:35;;;;;;;6.95;4.85;;;;;;;11.52;100.00;100909.22;5008830;28;20876;-73
2023/08/28 03:38:01;;;;;;;8.00;5.03;;;;;;;11.51;100.00;100913.59;4993742;28;20125;-73
2023/08/28 03:40:26;;;;;;;6.53;4.93;;;;;;;11.48;100.00;100919.91;4993422;28;21787;-73
2023/08/28 03:42:52;;;;;;;8.63;5.00;;;;;;;11.49;100.00;100915.53;4990790;28;20038;-72
2023/08/28 03:45:17;;;;;;;5.85;4.55;;;;;;;11.48;100.00;100919.09;4984943;28;20030;-73
2023/08/28 03:47:43;;;;;;;5.97;4.80;;;;;;;11.47;100.00;100923.50;4988898;28;20100;-73
2023/08/28 03:50:09;;;;;;;8.75;4.55;;;;;;;11.47;100.00;100930.44;4992833;28;20033;-73
2023/08/28 03:52:35;;;;;;;7.95;5.40;;;;;;;11.44;100.00;100923.78;4991128;28;20037;-73
2023/08/28 03:55:01;;;;;;;7.47;4.90;;;;;;;11.43;100.00;100926.53;4988594;28;20026;-73
2023/08/28 03:57:26;;;;;;;16.30;8.27;;;;;;;11.41;100.00;100924.09;4983149;28;20485;-73
2023/08/28 03:59:52;;;;;;;12.10;7.07;;;;;;;11.38;100.00;100921.03;4991173;28;20029;-72
2023/08/28 04:02:19;;;;;;;10.18;6.85;;;;;;;11.36;100.00;100920.34;4987141;28;20042;-72
2023/08/28 04:04:44;;;;;;;9.07;5.85;;;;;;;11.27;100.00;100935.09;5005523;28;20576;-73
2023/08/28 04:07:24;;;;;;;7.68;5.43;;;;;;;11.17;100.00;100932.66;4992155;28;20052;-73
2023/08/28 04:09:49;;;;;;;6.20;4.03;;;;;;;11.12;100.00;100934.09;4993982;28;20518;-73
2023/08/28 04:12:15;;;;;;;7.32;4.45;;;;;;;11.10;100.00;100942.03;4987172;28;20046;-72
2023/08/28 04:14:41;;;;;;;7.35;4.28;;;;;;;11.07;100.00;100934.53;4989456;28;20037;-72
2023/08/28 04:17:07;;;;;;;4.95;4.03;;;;;;;11.06;100.00;100932.94;4984686;28;20037;-72
2023/08/28 04:19:32;;;;;;;4.38;3.60;;;;;;;11.05;100.00;100928.69;4992587;28;20033;-73
2023/08/28 04:21:58;;;;;;;9.60;5.07;;;;;;;11.04;100.00;100927.88;4989818;28;20038;-72
2023/08/28 04:24:23;;;;;;;9.90;4.65;;;;;;;11.04;100.00;100927.88;4995572;28;20036;-73
2023/08/28 04:26:49;;;;;;;7.13;4.47;;;;;;;11.08;100.00;100928.38;4990471;28;20084;-72
2023/08/28 04:29:15;;;;;;;6.53;5.20;;;;;;;11.07;100.00;100914.56;4990461;28;20033;-73
2023/08/28 04:31:40;;;;;;;8.68;4.43;;;;;;;11.04;100.00;100907.13;4994113;28;20531;-73
2023/08/28 04:34:06;;;;;;;7.78;4.75;;;;;;;11.02;100.00;100901.28;5010329;28;20033;-72
2023/08/28 04:36:31;;;;;;;5.75;4.60;;;;;;;11.02;100.00;100890.91;4974423;28;20034;-73
2023/08/28 04:38:57;;;;;;;5.50;4.55;;;;;;;11.02;100.00;100893.50;5008758;28;20515;-73
2023/08/28 04:41:22;;;;;;;5.85;5.10;;;;;;;11.04;100.00;100890.75;4990497;28;20065;-73
2023/08/28 04:43:47;;;;;;;7.10;4.45;;;;;;;11.00;100.00;100885.06;5007428;28;20027;-73
2023/08/28 04:46:13;;;;;;;6.47;4.78;;;;;;;10.96;100.00;100888.09;5003544;28;20546;-72
2023/08/28 04:48:38;;;;;;;7.68;4.80;;;;;;;10.90;100.00;100892.13;5014058;28;20030;-72
2023/08/28 04:51:04;;;;;;;14.63;4.90;;;;;;;10.85;100.00;100884.84;4991543;28;20500;-72
2023/08/28 04:53:30;;;;;;;9.52;5.43;;;;;;;10.80;100.00;100892.25;5010821;28;20045;-72
2023/08/28 04:55:55;;;;;;;9.20;4.53;;;;;;;10.77;100.00;100894.34;4991334;28;20073;-72
2023/08/28 04:58:22;;;;;;;5.82;4.75;;;;;;;10.73;100.00;100893.03;4993036;28;20129;-72
2023/08/28 05:00:47;;;;;;;4.95;4.28;;;;;;;10.70;100.00;100894.97;5004418;28;20037;-73
2023/08/28 05:03:14;;;;;;;7.40;4.38;;;;;;;10.71;100.00;100888.00;5005262;28;20948;-72
2023/08/28 05:05:39;;;;;;;5.13;4.30;;;;;;;10.72;100.00;100884.44;5011046;28;20532;-72
2023/08/28 05:08:05;;;;;;;6.95;4.85;;;;;;;10.74;100.00;100895.47;5006666;28;20076;-72
2023/08/28 05:10:31;;;;;;;8.30;4.53;;;;;;;10.75;100.00;100888.50;4986586;28;20776;-72
2023/08/28 05:12:58;;;;;;;7.35;4.82;;;;;;;10.78;100.00;100898.59;5008258;28;20115;-72
2023/08/28 05:15:23;;;;;;;6.63;4.32;;;;;;;10.81;100.00;100890.47;4976548;28;20047;-72
2023/08/28 05:17:49;;;;;;;8.10;4.78;;;;;;;10.85;100.00;100902.16;4990624;28;20045;-72
2023/08/28 05:20:14;;;;;;;5.90;4.40;;;;;;;10.89;100.00;100903.50;4991595;28;20033;-72
2023/08/28 05:22:40;;;;;;;7.95;4.38;;;;;;;10.93;100.00;100906.59;4989562;28;20030;-72
2023/08/28 05:25:07;;;;;;;5.82;4.95;;;;;;;10.95;100.00;100907.25;4992397;28;20553;-72
2023/08/28 05:27:32;;;;;;;8.00;5.18;;;;;;;10.96;100.00;100911.47;4990034;28;20334;-72
2023/08/28 05:29:59;;;;;;;8.40;4.70;;;;;;;10.95;100.00;100907.25;4989451;28;20076;-72
2023/08/28 05:32:24;;;;;;;6.07;4.95;;;;;;;10.96;100.00;100903.66;5007299;28;20091;-72
2023/08/28 05:34:50;;;;;;;8.30;4.95;;;;;;;10.95;100.00;100912.44;4994585;28;20041;-72
2023/08/28 05:37:15;;;;;;;5.95;4.57;;;;;;;10.95;100.00;100915.03;4983693;28;20046;-72
2023/08/28 05:39:42;;;;;;;6.13;4.93;;;;;;;10.96;100.00;100911.47;4992463;28;20440;-72
2023/08/28 05:42:07;;;;;;;6.20;4.38;;;;;;;10.98;100.00;100915.53;5009031;28;20046;-72
2023/08/28 05:44:33;;;;;;;8.45;4.90;;;;;;;11.01;100.00;100928.19;4992108;28;20064;-72
2023/08/28 05:46:58;;;;;;;7.75;4.40;;;;;;;11.06;100.00;100930.31;4988676;28;20544;-72
2023/08/28 05:49:23;;;;;;;7.78;4.80;;;;;;;11.10;100.00;100929.03;4990919;28;20435;-72
2023/08/28 05:51:49;;;;;;;9.30;5.95;;;;;;;11.16;100.00;100925.00;4988035;28;20037;-72
2023/08/28 05:54:15;;;;;;;6.22;5.20;;;;;;;11.19;100.00;100922.91;4988992;28;20492;-72
2023/08/28 05:56:40;;;;;;;9.38;4.82;;;;;;;11.25;100.00;100930.06;4991634;28;20034;-72
2023/08/28 05:59:06;;;;;;;8.10;5.35;;;;;;;11.31;100.00;100936.41;4989414;28;20037;-72
2023/08/28 06:01:32;;;;;;;8.45;5.43;;;;;;;11.36;100.00;100938.53;4972853;28;20034;-73
2023/08/28 06:03:57;;;;;;;7.47;5.15;;;;;;;11.45;100.00;100932.38;5004708;28;20033;-72
2023/08/28 06:06:23;;;;;;;8.65;6.28;;;;;;;11.53;100.00;100932.44;5011843;28;20087;-73
2023/08/28 06:08:50;;;;;;;10.23;5.20;;;;;;;11.63;100.00;100932.28;5005000;28;20034;-73
2023/08/28 06:11:15;;;;;;;10.95;5.82;;;;;;;11.70;100.00;100928.06;5009508;28;20038;-73
2023/08/28 06:13:41;;;;;;;13.77;6.43;;;;;;;11.79;100.00;100931.47;5012405;28;20041;-73
2023/08/28 06:16:06;;;;;;;10.02;6.07;;;;;;;11.85;100.00;100923.06;4996205;28;20030;-73
2023/08/28 06:18:33;;;;;;;12.95;6.45;;;;;;;11.92;100.00;100925.84;4988915;28;20492;-73
2023/08/28 06:20:59;;;;;;;11.88;6.18;;;;;;;11.96;100.00;100927.16;4974067;28;20033;-73
2023/08/28 06:23:24;;;;;;;9.25;7.13;;;;;;;12.01;100.00;100923.09;4992975;28;20373;-72
2023/08/28 06:25:50;;;;;;;9.32;6.43;;;;;;;12.12;100.00;100923.75;4988613;28;20042;-73
2023/08/28 06:28:15;;;;;;;13.13;7.22;;;;;;;12.29;100.00;100929.75;4973015;28;20493;-72
2023/08/28 06:30:41;;;;;;;10.00;6.53;;;;;;;12.49;100.00;100932.81;5000318;28;20066;-73
2023/08/28 06:33:07;;;;;;;9.38;6.82;;;;;;;12.77;100.00;100928.03;4990903;28;20032;-72
2023/08/28 06:35:32;;;;;;;25.17;11.43;;;;;;;12.94;100.00;100926.19;5003066;28;20027;-73
2023/08/28 06:37:58;;;;;;;22.63;12.90;;;;;;;13.10;100.00;100928.72;5006981;28;20057;-72
2023/08/28 06:40:23;;;;;;;14.15;7.95;;;;;;;13.21;100.00;100925.75;5005762;28;20056;-72
2023/08/28 06:42:49;;;;;;;9.73;6.63;;;;;;;13.33;100.00;100921.00;5006021;28;20038;-72
2023/08/28 06:45:16;;;;;;;12.93;5.57;;;;;;;13.34;100.00;100919.22;4988965;28;20513;-71
2023/08/28 06:47:41;;;;;;;9.98;5.28;;;;;;;13.37;100.00;100921.47;5004507;28;20097;-71
2023/08/28 06:50:07;;;;;;;6.70;4.43;;;;;;;13.41;100.00;100923.56;5005979;28;20085;-72
2023/08/28 06:52:33;;;;;;;8.73;4.78;;;;;;;13.47;100.00;100919.47;5002056;28;20052;-70
2023/08/28 06:54:58;;;;;;;6.70;3.72;;;;;;;13.56;100.00;100925.44;5002279;28;21193;-70
2023/08/28 06:57:23;;;;;;;5.95;4.90;;;;;;;13.80;100.00;100909.63;4998024;28;20034;-71
2023/08/28 06:59:49;;;;;;;7.45;5.03;;;;;;;14.18;100.00;100911.44;5001777;28;20033;-70
2023/08/28 07:02:15;;;;;;;10.63;5.80;;;;;;;14.70;100.00;100908.03;4999410;28;20050;-70
2023/08/28 07:04:40;;;;;;;7.00;4.93;;;;;;;15.50;100.00;100903.75;5003079;28;22015;-72
2023/08/28 07:07:06;;;;;;;8.95;4.50;;;;;;;16.38;100.00;100900.06;4996936;28;20052;-71
2023/08/28 07:09:32;;;;;;;8.98;4.70;;;;;;;17.11;96.54;100895.22;5000968;28;20045;-71
2023/08/28 07:11:58;;;;;;;7.80;4.10;;;;;;;17.69;91.69;100894.72;4998647;28;20037;-70
2023/08/28 07:14:23;;;;;;;13.95;4.72;;;;;;;18.06;88.31;100901.22;4997707;28;20042;-70
2023/08/28 07:16:49;;;;;;;6.68;3.22;;;;;;;18.51;87.08;100899.72;4998749;28;20038;-70
2023/08/28 07:19:14;;;;;;;8.85;3.40;;;;;;;18.80;84.55;100903.69;5000287;28;20045;-70
2023/08/28 07:21:40;;;;;;;7.43;4.57;;;;;;;19.07;81.08;100909.66;4998056;28;20503;-71
2023/08/28 07:24:06;;;;;;;9.80;4.13;;;;;;;19.24;81.06;100908.16;5003918;28;20544;-71
2023/08/28 07:26:32;;;;;;;9.93;4.68;;;;;;;19.35;79.01;100911.94;5004035;28;20125;-70
2023/08/28 07:28:57;;;;;;;10.20;4.40;;;;;;;19.52;77.33;100914.06;5003016;28;20022;-71
2023/08/28 07:31:23;;;;;;;9.68;3.97;;;;;;;19.68;78.24;100918.00;4988880;28;20431;-71
2023/08/28 07:33:49;;;;;;;7.07;4.25;;;;;;;20.04;75.36;100914.69;4996999;28;20033;-71
2023/08/28 07:36:20;;;;;;;7.90;4.03;;;;;;;20.05;76.59;100916.31;4994124;28;20116;-72
2023/08/28 07:38:46;;;;;;;7.53;4.13;;;;;;;20.24;75.48;100917.16;5006017;28;20038;-71
2023/08/28 07:41:11;;;;;;;8.55;4.00;;;;;;;20.26;74.25;100911.69;4991008;28;20037;-71
2023/08/28 07:43:37;;;;;;;7.68;4.28;;;;;;;19.90;75.23;100913.22;5003675;28;20084;-71
2023/08/28 07:46:04;;;;;;;8.35;4.25;;;;;;;19.71;76.02;100922.84;5009181;28;20038;-73
2023/08/28 07:48:30;;;;;;;9.02;4.35;;;;;;;19.77;76.18;100922.00;5007775;28;20042;-71
2023/08/28 07:50:55;;;;;;;8.20;4.55;;;;;;;19.51;76.13;100918.50;5003227;28;20096;-72
2023/08/28 07:53:21;;;;;;;7.22;4.15;;;;;;;19.46;77.02;100928.88;5008215;28;20058;-71
2023/08/28 07:55:46;;;;;;;10.98;5.20;;;;;;;19.07;78.34;100943.81;5010704;28;20103;-71
2023/08/28 07:58:12;;;;;;;9.07;4.35;;;;;;;18.27;81.95;100941.34;5009214;28;20021;-71
2023/08/28 08:00:38;;;;;;;11.52;4.72;;;;;;;18.23;82.94;100937.53;5003271;28;20052;-71
2023/08/28 08:03:04;;;;;;;10.13;4.00;;;;;;;18.37;83.02;100933.88;4999244;28;20030;-71
2023/08/28 08:05:31;;;;;;;8.15;4.68;;;;;;;18.86;81.15;100932.56;5001646;28;21055;-71
2023/08/28 08:07:57;;;;;;;6.72;4.20;;;;;;;19.38;78.00;100927.31;5004643;28;20104;-71
2023/08/28 08:10:23;;;;;;;9.50;3.88;;;;;;;19.65;76.29;100914.78;5002630;28;20054;-71
2023/08/28 08:12:48;;;;;;;7.50;3.75;;;;;;;19.93;75.11;100915.41;5001658;28;20065;-71
2023/08/28 08:15:14;;;;;;;5.95;3.38;;;;;;;20.12;74.70;100913.66;4998693;28;20461;-71
2023/08/28 08:17:39;;;;;;;6.45;3.90;;;;;;;20.23;73.67;100915.56;5000361;28;20045;-71
2023/08/28 08:20:10;;;;;;;10.38;4.53;;;;;;;20.42;73.56;100922.47;5002288;28;20038;-71
2023/08/28 08:22:39;;;;;;;10.30;3.90;;;;;;;20.38;73.26;100918.66;5002631;28;20049;-71
2023/08/28 08:25:06;;;;;;;6.63;3.55;;;;;;;20.57;72.10;100922.09;5009150;28;20561;-71
2023/08/28 08:27:31;;;;;;;6.50;3.63;;;;;;;20.88;73.46;100914.28;4986735;28;20030;-71
2023/08/28 08:29:57;;;;;;;6.85;3.83;;;;;;;21.35;70.46;100911.84;5009776;28;21873;-71
2023/08/28 08:32:22;;;;;;;7.05;3.85;;;;;;;21.31;69.17;100910.69;5003247;28;20026;-71
2023/08/28 08:34:47;;;;;;;6.40;3.20;;;;;;;21.12;70.10;100907.28;5003130;28;20621;-71
2023/08/28 08:37:14;;;;;;;7.43;3.88;;;;;;;20.97;70.04;100915.59;5001922;28;20041;-71
2023/08/28 08:39:41;;;;;;;5.13;2.80;;;;;;;20.86;71.75;100916.34;5003038;28;20281;-70
2023/08/28 08:42:07;;;;;;;3.75;2.30;;;;;;;20.86;70.28;100908.44;5001803;28;20076;-71
2023/08/28 08:44:33;;;;;;;4.82;2.97;;;;;;;20.88;71.95;100914.28;5002549;28;20232;-71
2023/08/28 08:47:06;;;;;;;5.32;2.22;;;;;;;20.77;72.46;100915.81;4984075;28;20116;-70
2023/08/28 08:49:32;;;;;;;6.50;2.63;;;;;;;20.70;71.72;100915.09;4996530;28;20401;-71
2023/08/28 08:52:01;;;;;;;5.55;3.30;;;;;;;20.57;71.28;100929.19;5000812;28;20030;-72
2023/08/28 08:54:34;;;;;;;6.63;2.30;;;;;;;20.27;72.73;100924.63;5001884;28;20476;-71
2023/08/28 08:57:04;;;;;;;6.35;2.35;;;;;;;19.78;73.96;100919.16;4998850;28;20038;-72
2023/08/28 08:59:32;;;;;;;5.18;2.28;;;;;;;19.86;76.27;100919.94;5008493;28;20121;-71
2023/08/28 09:02:02;;;;;;;5.57;2.25;;;;;;;20.05;75.00;100916.31;4998347;28;20050;-71
2023/08/28 09:04:28;;;;;;;6.28;2.78;;;;;;;20.13;73.98;100920.50;4989663;28;20038;-71
2023/08/28 09:06:55;;;;;;;9.85;3.03;;;;;;;20.02;75.10;100928.09;4992243;28;20061;-72
2023/08/28 09:09:21;;;;;;;6.88;2.70;;;;;;;19.81;75.38;100926.63;4995793;28;20421;-71
2023/08/28 09:11:48;;;;;;;4.78;2.10;;;;;;;19.90;76.53;100921.91;4998171;28;20045;-71
2023/08/28 09:14:14;;;;;;;4.10;2.38;;;;;;;19.72;77.09;100927.06;5005375;28;20105;-71
2023/08/28 09:16:40;;;;;;;6.32;2.00;;;;;;;19.63;77.90;100929.16;5006725;28;20085;-71
2023/08/28 09:19:06;;;;;;;6.78;2.20;;;;;;;19.82;76.43;100930.06;5003793;28;20045;-71
2023/08/28 09:21:45;;;;;;;4.55;2.00;;;;;;;19.75;75.91;100932.75;5003925;28;20105;-71
2023/08/28 09:24:10;;;;;;;4.20;1.45;;;;;;;19.86;75.82;100931.25;5002327;28;20041;-71
2023/08/28 09:26:38;;;;;;;2.47;1.40;;;;;;;20.00;75.69;100932.78;5012484;28;20057;-71
2023/08/28 09:29:08;;;;;;;2.53;1.50;;;;;;;20.20;74.70;100932.56;5009883;28;20026;-72
2023/08/28 09:31:36;;;;;;;4.00;1.35;;;;;;;20.43;72.21;100925.88;5006551;28;20042;-71
2023/08/28 09:34:03;;;;;;;3.67;1.80;;;;;;;20.64;73.02;100932.56;5005293;28;20025;-72
2023/08/28 09:36:32;;;;;;;3.92;1.80;;;;;;;20.67;70.40;100928.72;5004013;28;20042;-71
2023/08/28 09:39:00;;;;;;;4.22;1.90;;;;;;;20.61;71.74;100923.28;5005187;28;20034;-71
2023/08/28 09:41:48;;;;;;;5.15;2.03;;;;;;;20.54;72.86;100929.63;5005615;28;20038;-71
2023/08/28 09:44:21;;;;;;;9.57;2.30;;;;;;;20.39;73.90;100924.72;5008780;28;20105;-71
2023/08/28 09:46:47;;;;;;;8.10;2.90;;;;;;;20.36;71.56;100931.22;5007503;28;20524;-71
2023/08/28 09:49:13;;;;;;;2.85;1.58;;;;;;;20.10;73.00;100920.91;5008403;28;20809;-72
2023/08/28 09:51:41;;;;;;;2.13;1.23;;;;;;;20.05;72.72;100923.41;5003306;28;20560;-71
2023/08/28 09:54:07;;;;;;;4.07;1.40;;;;;;;20.11;73.65;100912.03;5008981;28;20034;-71
2023/08/28 09:56:33;;;;;;;3.28;1.67;;;;;;;20.23;73.75;100912.94;5006971;28;20045;-71
2023/08/28 09:59:00;;;;;;;4.25;1.77;;;;;;;20.17;72.96;100905.88;5010060;28;20092;-71
2023/08/28 10:01:29;;;;;;;3.65;1.52;;;;;;;20.15;74.08;100911.34;5012459;28;20148;-71
2023/08/28 10:03:56;;;;;;;3.47;1.65;;;;;;;19.92;72.93;100898.81;4999200;28;20048;-71
2023/08/28 10:06:25;;;;;;;5.43;1.60;;;;;;;20.06;71.51;100896.06;5005440;28;20096;-71
2023/08/28 10:08:53;;;;;;;3.97;1.25;;;;;;;20.16;74.48;100891.94;5008107;28;20125;-71
2023/08/28 10:11:20;;;;;;;4.95;1.02;;;;;;;20.23;73.92;100892.66;5001522;28;20042;-72
2023/08/28 10:13:45;;;;;;;3.20;1.08;;;;;;;20.22;71.86;100887.63;5001562;28;20046;-71
2023/08/28 10:16:16;;;;;;;3.08;1.23;;;;;;;20.18;71.87;100889.06;5009470;28;20153;-71
2023/08/28 10:18:53;;;;;;;1.92;1.08;;;;;;;20.34;71.18;100887.69;4984484;28;20493;-72
2023/08/28 10:21:20;;;;;;;3.35;1.00;;;;;;;20.48;71.32;100885.75;5007945;28;20034;-72
2023/08/28 10:23:48;;;;;;;3.20;1.20;;;;;;;20.33;68.04;100886.09;5010062;28;20556;-71
2023/08/28 10:26:14;;;;;;;3.08;1.20;;;;;;;20.13;67.63;100883.66;5010052;28;20042;-71
2023/08/28 10:28:42;;;;;;;3.10;0.82;;;;;;;20.08;68.51;100879.06;5008883;28;20045;-71
2023/08/28 10:31:08;;;;;;;3.15;0.80;;;;;;;20.14;69.13;100877.38;5008130;28;20131;-71
2023/08/28 10:33:36;;;;;;;2.03;1.00;;;;;;;20.30;67.83;100870.72;5001629;28;20037;-71
2023/08/28 10:36:02;;;;;;;2.97;1.20;;;;;;;20.56;67.42;100880.16;5000081;28;20128;-71
2023/08/28 10:38:28;;;;;;;3.92;1.10;;;;;;;20.71;69.57;100879.84;5004268;28;20176;-71
2023/08/28 10:40:56;;;;;;;4.40;1.52;;;;;;;20.40;69.00;100882.38;5005835;28;20061;-71
2023/08/28 10:43:23;;;;;;;2.63;1.45;;;;;;;20.23;70.42;100883.97;5005821;28;20043;-71
2023/08/28 10:45:52;;;;;;;2.78;1.23;;;;;;;20.36;71.41;100881.22;5001713;28;20065;-71
2023/08/28 10:48:18;;;;;;;2.50;0.88;;;;;;;20.54;71.92;100872.47;5010345;28;20026;-71
2023/08/28 10:50:44;;;;;;;2.67;1.30;;;;;;;20.66;70.88;100872.56;5001754;28;20065;-72
2023/08/28 10:53:16;;;;;;;2.83;1.40;;;;;;;20.77;69.54;100874.47;5003582;28;20056;-71
2023/08/28 10:56:00;;;;;;;6.15;1.50;;;;;;;20.58;66.96;100880.75;4994984;28;20093;-71
2023/08/28 10:58:44;;;;;;;2.88;1.75;;;;;;;20.35;67.80;100871.69;5008053;28;20090;-72
2023/08/28 11:01:15;;;;;;;3.47;1.35;;;;;;;20.28;67.57;100870.94;4985449;28;20221;-71
2023/08/28 11:03:57;;;;;;;4.68;1.20;;;;;;;20.40;69.28;100863.16;5002402;28;20037;-72
2023/08/28 11:06:43;;;;;;;4.40;0.95;;;;;;;20.48;69.01;100868.09;4995679;28;20050;-71
2023/08/28 11:09:30;;;;;;;2.35;1.10;;;;;;;20.57;69.01;100873.88;4997414;28;20124;-71
2023/08/28 11:12:01;;;;;;;3.67;1.10;;;;;;;20.67;67.36;100876.03;5002565;28;20053;-71
2023/08/28 11:14:31;;;;;;;2.58;1.23;;;;;;;20.82;68.45;100876.44;5002525;28;20030;-72
2023/08/28 11:17:24;;;;;;;2.63;0.95;;;;;;;21.12;66.65;100880.94;5004617;28;20030;-71
2023/08/28 11:19:55;;;;;;;1.55;1.13;;;;;;;20.94;64.99;100882.56;5000257;28;20169;-71